sensor_id;sensor_type;location;lat;lon;timestamp;temperature;humidity
43999;DHT22;51319;52.162;5.302;2022-08-03T00:01:22;20.40;85.40
43999;DHT22;51319;52.162;5.302;2022-08-03T00:03:49;20.40;85.70
43999;DHT22;51319;52.162;5.302;2022-08-03T00:06:15;20.40;85.90
43999;DHT22;51319;52.162;5.302;2022-08-03T00:08:41;20.30;86.00
43999;DHT22;51319;52.162;5.302;2022-08-03T00:11:07;20.30;86.20
43999;DHT22;51319;52.162;5.302;2022-08-03T00:13:34;20.30;86.40
43999;DHT22;51319;52.162;5.302;2022-08-03T00:16:00;20.30;86.40
43999;DHT22;51319;52.162;5.302;2022-08-03T00:18:26;20.30;86.60
43999;DHT22;51319;52.162;5.302;2022-08-03T00:20:52;20.30;86.70
43999;DHT22;51319;52.162;5.302;2022-08-03T00:23:18;20.20;86.80
43999;DHT22;51319;52.162;5.302;2022-08-03T00:25:45;20.20;87.10
43999;DHT22;51319;52.162;5.302;2022-08-03T00:28:11;20.20;87.30
43999;DHT22;51319;52.162;5.302;2022-08-03T00:30:37;20.20;87.50
43999;DHT22;51319;52.162;5.302;2022-08-03T00:33:03;20.20;87.50
43999;DHT22;51319;52.162;5.302;2022-08-03T00:35:30;20.20;87.40
43999;DHT22;51319;52.162;5.302;2022-08-03T00:38:17;20.20;87.50
43999;DHT22;51319;52.162;5.302;2022-08-03T00:40:43;20.20;87.60
43999;DHT22;51319;52.162;5.302;2022-08-03T00:43:09;20.10;87.80
43999;DHT22;51319;52.162;5.302;2022-08-03T00:45:39;20.10;87.90
43999;DHT22;51319;52.162;5.302;2022-08-03T00:48:06;20.10;88.10
43999;DHT22;51319;52.162;5.302;2022-08-03T00:50:53;20.00;88.30
43999;DHT22;51319;52.162;5.302;2022-08-03T00:53:19;20.00;88.30
43999;DHT22;51319;52.162;5.302;2022-08-03T00:55:46;20.00;88.40
43999;DHT22;51319;52.162;5.302;2022-08-03T00:58:12;20.00;88.60
43999;DHT22;51319;52.162;5.302;2022-08-03T01:00:39;19.90;88.70
43999;DHT22;51319;52.162;5.302;2022-08-03T01:03:08;20.00;89.00
43999;DHT22;51319;52.162;5.302;2022-08-03T01:12:06;19.90;89.00
43999;DHT22;51319;52.162;5.302;2022-08-03T01:14:37;19.80;89.20
43999;DHT22;51319;52.162;5.302;2022-08-03T01:20:13;19.80;88.80
43999;DHT22;51319;52.162;5.302;2022-08-03T01:31:19;19.60;90.10
43999;DHT22;51319;52.162;5.302;2022-08-03T01:33:50;19.60;90.10
43999;DHT22;51319;52.162;5.302;2022-08-03T01:36:28;19.60;90.20
43999;DHT22;51319;52.162;5.302;2022-08-03T01:39:00;19.60;90.30
43999;DHT22;51319;52.162;5.302;2022-08-03T01:41:35;19.60;90.20
43999;DHT22;51319;52.162;5.302;2022-08-03T01:44:06;19.50;90.40
43999;DHT22;51319;52.162;5.302;2022-08-03T01:46:55;19.50;90.40
43999;DHT22;51319;52.162;5.302;2022-08-03T01:49:23;19.50;90.50
43999;DHT22;51319;52.162;5.302;2022-08-03T01:51:51;19.50;90.60
43999;DHT22;51319;52.162;5.302;2022-08-03T01:54:33;19.40;90.70
43999;DHT22;51319;52.162;5.302;2022-08-03T01:57:02;19.40;90.80
43999;DHT22;51319;52.162;5.302;2022-08-03T01:59:29;19.40;90.80
43999;DHT22;51319;52.162;5.302;2022-08-03T02:01:59;19.40;90.90
43999;DHT22;51319;52.162;5.302;2022-08-03T02:04:46;19.50;91.00
43999;DHT22;51319;52.162;5.302;2022-08-03T02:07:14;19.50;91.00
43999;DHT22;51319;52.162;5.302;2022-08-03T02:09:46;19.50;91.00
43999;DHT22;51319;52.162;5.302;2022-08-03T02:12:15;19.50;91.00
43999;DHT22;51319;52.162;5.302;2022-08-03T02:14:43;19.40;91.00
43999;DHT22;51319;52.162;5.302;2022-08-03T02:17:11;19.40;91.00
43999;DHT22;51319;52.162;5.302;2022-08-03T02:19:41;19.40;91.10
43999;DHT22;51319;52.162;5.302;2022-08-03T02:22:09;19.40;91.20
43999;DHT22;51319;52.162;5.302;2022-08-03T02:24:37;19.30;91.30
43999;DHT22;51319;52.162;5.302;2022-08-03T02:27:19;19.30;91.30
43999;DHT22;51319;52.162;5.302;2022-08-03T02:29:48;19.30;91.40
43999;DHT22;51319;52.162;5.302;2022-08-03T02:32:23;19.30;91.40
43999;DHT22;51319;52.162;5.302;2022-08-03T02:34:52;19.30;91.50
43999;DHT22;51319;52.162;5.302;2022-08-03T02:37:20;19.30;91.50
43999;DHT22;51319;52.162;5.302;2022-08-03T02:39:49;19.30;91.60
43999;DHT22;51319;52.162;5.302;2022-08-03T02:42:20;19.30;91.60
43999;DHT22;51319;52.162;5.302;2022-08-03T02:44:49;19.30;91.60
43999;DHT22;51319;52.162;5.302;2022-08-03T02:47:19;19.30;91.50
43999;DHT22;51319;52.162;5.302;2022-08-03T02:49:47;19.20;91.50
43999;DHT22;51319;52.162;5.302;2022-08-03T02:52:20;19.20;91.60
43999;DHT22;51319;52.162;5.302;2022-08-03T02:54:51;19.20;91.60
43999;DHT22;51319;52.162;5.302;2022-08-03T02:57:19;19.20;91.60
43999;DHT22;51319;52.162;5.302;2022-08-03T02:59:46;19.20;91.70
43999;DHT22;51319;52.162;5.302;2022-08-03T03:02:14;19.20;91.70
43999;DHT22;51319;52.162;5.302;2022-08-03T03:04:44;19.10;91.70
43999;DHT22;51319;52.162;5.302;2022-08-03T03:07:31;19.10;91.70
43999;DHT22;51319;52.162;5.302;2022-08-03T03:10:08;19.10;91.80
43999;DHT22;51319;52.162;5.302;2022-08-03T03:12:36;19.10;91.70
43999;DHT22;51319;52.162;5.302;2022-08-03T03:15:06;19.10;91.80
43999;DHT22;51319;52.162;5.302;2022-08-03T03:17:33;19.10;91.80
43999;DHT22;51319;52.162;5.302;2022-08-03T03:20:00;19.10;91.80
43999;DHT22;51319;52.162;5.302;2022-08-03T03:22:27;19.10;92.10
43999;DHT22;51319;52.162;5.302;2022-08-03T03:24:54;19.10;91.80
43999;DHT22;51319;52.162;5.302;2022-08-03T03:27:21;19.00;91.80
43999;DHT22;51319;52.162;5.302;2022-08-03T03:29:48;19.00;91.80
43999;DHT22;51319;52.162;5.302;2022-08-03T03:32:15;19.00;91.90
43999;DHT22;51319;52.162;5.302;2022-08-03T03:34:43;18.90;91.90
43999;DHT22;51319;52.162;5.302;2022-08-03T03:37:10;18.90;92.00
43999;DHT22;51319;52.162;5.302;2022-08-03T03:39:36;18.90;92.10
43999;DHT22;51319;52.162;5.302;2022-08-03T03:42:02;18.90;92.20
43999;DHT22;51319;52.162;5.302;2022-08-03T03:44:29;18.90;92.20
43999;DHT22;51319;52.162;5.302;2022-08-03T03:46:59;18.90;92.20
43999;DHT22;51319;52.162;5.302;2022-08-03T03:49:25;18.80;92.20
43999;DHT22;51319;52.162;5.302;2022-08-03T03:51:53;18.80;92.20
43999;DHT22;51319;52.162;5.302;2022-08-03T03:54:19;18.80;92.20
43999;DHT22;51319;52.162;5.302;2022-08-03T03:56:46;18.80;92.30
43999;DHT22;51319;52.162;5.302;2022-08-03T03:59:12;18.80;92.40
43999;DHT22;51319;52.162;5.302;2022-08-03T04:01:39;18.80;92.40
43999;DHT22;51319;52.162;5.302;2022-08-03T04:04:05;18.80;92.40
43999;DHT22;51319;52.162;5.302;2022-08-03T04:06:50;18.80;92.30
43999;DHT22;51319;52.162;5.302;2022-08-03T04:09:36;18.80;92.20
43999;DHT22;51319;52.162;5.302;2022-08-03T04:12:25;18.80;92.20
43999;DHT22;51319;52.162;5.302;2022-08-03T04:14:55;18.70;92.20
43999;DHT22;51319;52.162;5.302;2022-08-03T04:17:24;18.70;92.30
43999;DHT22;51319;52.162;5.302;2022-08-03T04:19:52;18.70;92.30
43999;DHT22;51319;52.162;5.302;2022-08-03T04:22:24;18.70;92.40
43999;DHT22;51319;52.162;5.302;2022-08-03T04:24:56;18.80;92.40
43999;DHT22;51319;52.162;5.302;2022-08-03T04:27:27;18.70;92.40
43999;DHT22;51319;52.162;5.302;2022-08-03T04:29:56;18.70;92.40
43999;DHT22;51319;52.162;5.302;2022-08-03T04:32:25;18.80;92.60
43999;DHT22;51319;52.162;5.302;2022-08-03T04:34:53;18.80;92.30
43999;DHT22;51319;52.162;5.302;2022-08-03T04:37:34;18.80;92.20
43999;DHT22;51319;52.162;5.302;2022-08-03T04:40:06;18.80;92.20
43999;DHT22;51319;52.162;5.302;2022-08-03T04:42:34;18.80;92.20
43999;DHT22;51319;52.162;5.302;2022-08-03T04:45:03;18.80;92.10
43999;DHT22;51319;52.162;5.302;2022-08-03T04:47:31;18.90;92.10
43999;DHT22;51319;52.162;5.302;2022-08-03T04:50:00;18.80;92.10
43999;DHT22;51319;52.162;5.302;2022-08-03T04:52:26;18.90;92.10
43999;DHT22;51319;52.162;5.302;2022-08-03T04:54:52;18.80;92.10
43999;DHT22;51319;52.162;5.302;2022-08-03T04:57:19;18.90;92.10
43999;DHT22;51319;52.162;5.302;2022-08-03T04:59:53;18.90;92.10
43999;DHT22;51319;52.162;5.302;2022-08-03T05:02:27;18.90;92.00
43999;DHT22;51319;52.162;5.302;2022-08-03T05:04:53;19.00;92.00
43999;DHT22;51319;52.162;5.302;2022-08-03T05:07:19;19.00;92.00
43999;DHT22;51319;52.162;5.302;2022-08-03T05:09:50;19.00;91.90
43999;DHT22;51319;52.162;5.302;2022-08-03T05:12:23;19.00;91.80
43999;DHT22;51319;52.162;5.302;2022-08-03T05:14:49;19.00;91.80
43999;DHT22;51319;52.162;5.302;2022-08-03T05:17:15;19.10;91.80
43999;DHT22;51319;52.162;5.302;2022-08-03T05:19:41;19.10;91.70
43999;DHT22;51319;52.162;5.302;2022-08-03T05:22:08;19.10;91.70
43999;DHT22;51319;52.162;5.302;2022-08-03T05:24:34;19.10;91.60
43999;DHT22;51319;52.162;5.302;2022-08-03T05:27:00;19.10;91.60
43999;DHT22;51319;52.162;5.302;2022-08-03T05:29:26;19.10;91.60
43999;DHT22;51319;52.162;5.302;2022-08-03T05:31:52;19.10;91.60
43999;DHT22;51319;52.162;5.302;2022-08-03T05:34:18;19.10;91.60
43999;DHT22;51319;52.162;5.302;2022-08-03T05:36:44;19.20;91.70
43999;DHT22;51319;52.162;5.302;2022-08-03T05:39:11;19.30;91.60
43999;DHT22;51319;52.162;5.302;2022-08-03T05:41:37;19.30;91.50
43999;DHT22;51319;52.162;5.302;2022-08-03T05:44:05;19.50;91.40
43999;DHT22;51319;52.162;5.302;2022-08-03T05:46:31;19.70;91.30
43999;DHT22;51319;52.162;5.302;2022-08-03T05:48:57;20.00;91.30
43999;DHT22;51319;52.162;5.302;2022-08-03T05:51:24;20.20;90.60
43999;DHT22;51319;52.162;5.302;2022-08-03T05:53:50;20.60;90.20
43999;DHT22;51319;52.162;5.302;2022-08-03T05:56:16;21.10;89.70
43999;DHT22;51319;52.162;5.302;2022-08-03T05:58:46;21.40;87.50
43999;DHT22;51319;52.162;5.302;2022-08-03T06:01:13;21.80;85.70
43999;DHT22;51319;52.162;5.302;2022-08-03T06:03:40;22.10;84.40
43999;DHT22;51319;52.162;5.302;2022-08-03T06:06:06;22.20;82.90
43999;DHT22;51319;52.162;5.302;2022-08-03T06:08:33;22.50;82.10
43999;DHT22;51319;52.162;5.302;2022-08-03T06:11:00;22.80;81.00
43999;DHT22;51319;52.162;5.302;2022-08-03T06:13:26;23.20;79.70
43999;DHT22;51319;52.162;5.302;2022-08-03T06:15:52;23.50;78.10
43999;DHT22;51319;52.162;5.302;2022-08-03T06:18:18;23.90;76.60
43999;DHT22;51319;52.162;5.302;2022-08-03T06:20:44;24.10;75.30
43999;DHT22;51319;52.162;5.302;2022-08-03T06:23:12;24.20;74.40
43999;DHT22;51319;52.162;5.302;2022-08-03T06:25:43;24.20;74.00
43999;DHT22;51319;52.162;5.302;2022-08-03T06:28:10;24.60;73.20
43999;DHT22;51319;52.162;5.302;2022-08-03T06:30:44;24.90;72.30
43999;DHT22;51319;52.162;5.302;2022-08-03T06:33:11;25.30;71.20
43999;DHT22;51319;52.162;5.302;2022-08-03T06:35:37;25.60;69.90
43999;DHT22;51319;52.162;5.302;2022-08-03T06:38:07;26.00;68.90
43999;DHT22;51319;52.162;5.302;2022-08-03T06:40:35;26.10;67.90
43999;DHT22;51319;52.162;5.302;2022-08-03T06:43:06;26.00;67.40
43999;DHT22;51319;52.162;5.302;2022-08-03T06:45:38;26.40;67.10
43999;DHT22;51319;52.162;5.302;2022-08-03T06:48:11;26.70;66.10
43999;DHT22;51319;52.162;5.302;2022-08-03T06:50:39;26.90;65.30
43999;DHT22;51319;52.162;5.302;2022-08-03T06:53:09;27.20;64.20
43999;DHT22;51319;52.162;5.302;2022-08-03T06:55:47;27.60;63.20
43999;DHT22;51319;52.162;5.302;2022-08-03T06:58:19;27.50;62.40
43999;DHT22;51319;52.162;5.302;2022-08-03T07:00:46;27.40;62.50
43999;DHT22;51319;52.162;5.302;2022-08-03T07:03:12;27.50;62.60
43999;DHT22;51319;52.162;5.302;2022-08-03T07:05:38;28.00;61.70
43999;DHT22;51319;52.162;5.302;2022-08-03T07:08:04;28.30;60.80
43999;DHT22;51319;52.162;5.302;2022-08-03T07:10:30;28.50;59.90
43999;DHT22;51319;52.162;5.302;2022-08-03T07:12:57;29.00;59.80
43999;DHT22;51319;52.162;5.302;2022-08-03T07:15:25;29.40;58.30
43999;DHT22;51319;52.162;5.302;2022-08-03T07:18:12;29.80;57.70
43999;DHT22;51319;52.162;5.302;2022-08-03T07:20:38;29.90;56.40
43999;DHT22;51319;52.162;5.302;2022-08-03T07:23:05;29.70;56.40
43999;DHT22;51319;52.162;5.302;2022-08-03T07:25:33;29.50;56.60
43999;DHT22;51319;52.162;5.302;2022-08-03T07:27:59;29.90;55.90
43999;DHT22;51319;52.162;5.302;2022-08-03T07:30:25;30.50;55.40
43999;DHT22;51319;52.162;5.302;2022-08-03T07:32:51;30.80;54.70
43999;DHT22;51319;52.162;5.302;2022-08-03T07:35:18;31.30;53.80
43999;DHT22;51319;52.162;5.302;2022-08-03T07:37:52;31.80;52.90
43999;DHT22;51319;52.162;5.302;2022-08-03T07:40:21;32.10;51.90
43999;DHT22;51319;52.162;5.302;2022-08-03T07:42:47;32.40;51.40
43999;DHT22;51319;52.162;5.302;2022-08-03T07:45:17;32.70;50.40
43999;DHT22;51319;52.162;5.302;2022-08-03T07:47:43;32.90;49.40
43999;DHT22;51319;52.162;5.302;2022-08-03T07:50:19;33.20;49.00
43999;DHT22;51319;52.162;5.302;2022-08-03T07:52:45;33.50;48.30
43999;DHT22;51319;52.162;5.302;2022-08-03T07:55:16;33.90;47.70
43999;DHT22;51319;52.162;5.302;2022-08-03T07:57:43;34.20;46.60
43999;DHT22;51319;52.162;5.302;2022-08-03T08:00:15;34.30;46.60
43999;DHT22;51319;52.162;5.302;2022-08-03T08:02:42;34.60;46.10
43999;DHT22;51319;52.162;5.302;2022-08-03T08:05:10;34.90;45.30
43999;DHT22;51319;52.162;5.302;2022-08-03T08:07:37;35.20;45.00
43999;DHT22;51319;52.162;5.302;2022-08-03T08:10:05;35.50;44.70
43999;DHT22;51319;52.162;5.302;2022-08-03T08:12:32;35.70;44.30
43999;DHT22;51319;52.162;5.302;2022-08-03T08:14:58;36.00;43.70
43999;DHT22;51319;52.162;5.302;2022-08-03T08:17:24;36.20;43.20
43999;DHT22;51319;52.162;5.302;2022-08-03T08:19:50;36.40;42.80
43999;DHT22;51319;52.162;5.302;2022-08-03T08:22:18;36.70;42.30
43999;DHT22;51319;52.162;5.302;2022-08-03T08:24:57;37.00;42.60
43999;DHT22;51319;52.162;5.302;2022-08-03T08:27:23;37.20;41.60
43999;DHT22;51319;52.162;5.302;2022-08-03T08:29:49;37.50;40.70
43999;DHT22;51319;52.162;5.302;2022-08-03T08:32:22;37.80;40.40
43999;DHT22;51319;52.162;5.302;2022-08-03T08:34:49;38.10;40.20
43999;DHT22;51319;52.162;5.302;2022-08-03T08:37:18;38.20;40.10
43999;DHT22;51319;52.162;5.302;2022-08-03T08:39:44;38.40;39.50
43999;DHT22;51319;52.162;5.302;2022-08-03T08:42:11;38.80;39.50
43999;DHT22;51319;52.162;5.302;2022-08-03T08:44:37;39.10;39.00
43999;DHT22;51319;52.162;5.302;2022-08-03T08:47:04;39.30;38.40
43999;DHT22;51319;52.162;5.302;2022-08-03T08:49:31;39.50;38.50
43999;DHT22;51319;52.162;5.302;2022-08-03T08:52:02;39.70;38.20
43999;DHT22;51319;52.162;5.302;2022-08-03T08:54:53;40.00;37.80
43999;DHT22;51319;52.162;5.302;2022-08-03T08:57:21;40.20;37.40
43999;DHT22;51319;52.162;5.302;2022-08-03T09:00:09;40.40;38.70
43999;DHT22;51319;52.162;5.302;2022-08-03T09:02:39;40.60;37.00
43999;DHT22;51319;52.162;5.302;2022-08-03T09:05:17;40.70;36.30
43999;DHT22;51319;52.162;5.302;2022-08-03T09:07:45;40.90;35.80
43999;DHT22;51319;52.162;5.302;2022-08-03T09:10:13;41.10;35.80
43999;DHT22;51319;52.162;5.302;2022-08-03T09:12:44;41.10;35.70
43999;DHT22;51319;52.162;5.302;2022-08-03T09:15:31;40.90;34.90
43999;DHT22;51319;52.162;5.302;2022-08-03T09:17:59;40.40;35.10
43999;DHT22;51319;52.162;5.302;2022-08-03T09:20:28;40.60;35.90
43999;DHT22;51319;52.162;5.302;2022-08-03T09:23:07;41.00;35.50
43999;DHT22;51319;52.162;5.302;2022-08-03T09:25:56;41.50;34.90
43999;DHT22;51319;52.162;5.302;2022-08-03T09:28:33;41.90;35.90
43999;DHT22;51319;52.162;5.302;2022-08-03T09:31:35;42.20;34.60
43999;DHT22;51319;52.162;5.302;2022-08-03T09:34:03;42.60;34.20
43999;DHT22;51319;52.162;5.302;2022-08-03T09:36:40;42.90;33.50
43999;DHT22;51319;52.162;5.302;2022-08-03T09:39:09;43.10;33.90
43999;DHT22;51319;52.162;5.302;2022-08-03T09:41:44;43.40;32.90
43999;DHT22;51319;52.162;5.302;2022-08-03T09:44:11;43.70;32.60
43999;DHT22;51319;52.162;5.302;2022-08-03T09:46:55;43.60;32.90
43999;DHT22;51319;52.162;5.302;2022-08-03T09:49:21;43.70;32.30
43999;DHT22;51319;52.162;5.302;2022-08-03T09:51:48;43.80;32.30
43999;DHT22;51319;52.162;5.302;2022-08-03T09:54:34;44.10;31.90
43999;DHT22;51319;52.162;5.302;2022-08-03T09:57:01;44.30;32.20
43999;DHT22;51319;52.162;5.302;2022-08-03T09:59:29;44.40;31.10
43999;DHT22;51319;52.162;5.302;2022-08-03T10:01:57;44.40;31.10
43999;DHT22;51319;52.162;5.302;2022-08-03T10:04:25;44.60;30.90
43999;DHT22;51319;52.162;5.302;2022-08-03T10:07:08;44.70;30.80
43999;DHT22;51319;52.162;5.302;2022-08-03T10:09:36;44.70;31.60
43999;DHT22;51319;52.162;5.302;2022-08-03T10:12:10;44.80;31.10
43999;DHT22;51319;52.162;5.302;2022-08-03T10:14:38;44.90;30.60
43999;DHT22;51319;52.162;5.302;2022-08-03T10:17:05;45.20;30.60
43999;DHT22;51319;52.162;5.302;2022-08-03T10:19:32;45.30;30.00
43999;DHT22;51319;52.162;5.302;2022-08-03T10:24:55;45.50;30.00
43999;DHT22;51319;52.162;5.302;2022-08-03T10:27:26;45.90;30.60
43999;DHT22;51319;52.162;5.302;2022-08-03T10:29:59;46.10;30.00
43999;DHT22;51319;52.162;5.302;2022-08-03T10:33:08;46.20;29.50
43999;DHT22;51319;52.162;5.302;2022-08-03T10:35:16;46.20;30.10
43999;DHT22;51319;52.162;5.302;2022-08-03T10:38:07;46.10;29.80
43999;DHT22;51319;52.162;5.302;2022-08-03T10:40:37;46.10;29.60
43999;DHT22;51319;52.162;5.302;2022-08-03T10:43:26;46.30;29.30
43999;DHT22;51319;52.162;5.302;2022-08-03T10:45:54;46.60;29.50
43999;DHT22;51319;52.162;5.302;2022-08-03T10:48:21;46.70;29.40
43999;DHT22;51319;52.162;5.302;2022-08-03T10:50:48;46.90;29.20
43999;DHT22;51319;52.162;5.302;2022-08-03T10:53:15;46.90;28.70
43999;DHT22;51319;52.162;5.302;2022-08-03T10:55:45;47.00;29.30
43999;DHT22;51319;52.162;5.302;2022-08-03T11:01:48;47.30;28.60
43999;DHT22;51319;52.162;5.302;2022-08-03T11:04:26;47.50;28.60
43999;DHT22;51319;52.162;5.302;2022-08-03T11:07:22;47.80;28.40
43999;DHT22;51319;52.162;5.302;2022-08-03T11:09:54;47.80;28.70
43999;DHT22;51319;52.162;5.302;2022-08-03T11:14:59;47.80;28.00
43999;DHT22;51319;52.162;5.302;2022-08-03T11:17:26;47.80;27.70
43999;DHT22;51319;52.162;5.302;2022-08-03T11:19:52;47.90;27.60
43999;DHT22;51319;52.162;5.302;2022-08-03T11:22:23;47.70;27.70
43999;DHT22;51319;52.162;5.302;2022-08-03T11:24:56;47.60;28.10
43999;DHT22;51319;52.162;5.302;2022-08-03T11:27:32;47.70;28.00
43999;DHT22;51319;52.162;5.302;2022-08-03T11:30:23;47.90;27.70
43999;DHT22;51319;52.162;5.302;2022-08-03T11:32:57;47.90;27.80
43999;DHT22;51319;52.162;5.302;2022-08-03T11:35:32;47.90;27.90
43999;DHT22;51319;52.162;5.302;2022-08-03T11:38:03;47.90;27.70
43999;DHT22;51319;52.162;5.302;2022-08-03T11:40:39;47.90;27.80
43999;DHT22;51319;52.162;5.302;2022-08-03T11:46:06;48.10;27.40
43999;DHT22;51319;52.162;5.302;2022-08-03T11:48:35;48.20;27.60
43999;DHT22;51319;52.162;5.302;2022-08-03T11:51:03;48.10;27.80
43999;DHT22;51319;52.162;5.302;2022-08-03T11:53:30;48.10;27.30
43999;DHT22;51319;52.162;5.302;2022-08-03T11:56:01;48.00;27.00
43999;DHT22;51319;52.162;5.302;2022-08-03T11:58:28;48.00;27.30
43999;DHT22;51319;52.162;5.302;2022-08-03T12:01:14;48.20;27.00
43999;DHT22;51319;52.162;5.302;2022-08-03T12:03:49;48.10;27.10
43999;DHT22;51319;52.162;5.302;2022-08-03T12:06:16;48.20;26.80
43999;DHT22;51319;52.162;5.302;2022-08-03T12:08:44;48.10;26.20
43999;DHT22;51319;52.162;5.302;2022-08-03T12:11:14;48.10;26.10
43999;DHT22;51319;52.162;5.302;2022-08-03T12:13:45;48.00;25.90
43999;DHT22;51319;52.162;5.302;2022-08-03T12:16:32;47.90;26.10
43999;DHT22;51319;52.162;5.302;2022-08-03T12:19:00;48.00;26.20
43999;DHT22;51319;52.162;5.302;2022-08-03T12:21:27;47.90;26.00
43999;DHT22;51319;52.162;5.302;2022-08-03T12:23:59;47.60;25.50
43999;DHT22;51319;52.162;5.302;2022-08-03T12:26:31;47.60;26.30
43999;DHT22;51319;52.162;5.302;2022-08-03T12:29:07;47.50;25.80
43999;DHT22;51319;52.162;5.302;2022-08-03T12:31:34;47.30;26.70
43999;DHT22;51319;52.162;5.302;2022-08-03T12:34:03;47.30;27.10
43999;DHT22;51319;52.162;5.302;2022-08-03T12:36:33;47.30;26.80
43999;DHT22;51319;52.162;5.302;2022-08-03T12:39:05;47.30;27.00
43999;DHT22;51319;52.162;5.302;2022-08-03T12:41:39;46.50;26.60
43999;DHT22;51319;52.162;5.302;2022-08-03T12:44:07;45.60;27.10
43999;DHT22;51319;52.162;5.302;2022-08-03T12:46:36;45.50;27.70
43999;DHT22;51319;52.162;5.302;2022-08-03T12:49:13;45.50;27.80
43999;DHT22;51319;52.162;5.302;2022-08-03T12:54:26;45.70;28.50
43999;DHT22;51319;52.162;5.302;2022-08-03T12:57:11;45.60;27.80
43999;DHT22;51319;52.162;5.302;2022-08-03T12:59:43;45.40;28.10
43999;DHT22;51319;52.162;5.302;2022-08-03T13:02:21;45.10;28.50
43999;DHT22;51319;52.162;5.302;2022-08-03T13:04:50;44.50;28.90
43999;DHT22;51319;52.162;5.302;2022-08-03T13:07:17;44.40;29.10
43999;DHT22;51319;52.162;5.302;2022-08-03T13:09:47;44.40;29.20
43999;DHT22;51319;52.162;5.302;2022-08-03T13:12:18;44.40;29.20
43999;DHT22;51319;52.162;5.302;2022-08-03T13:14:48;44.40;29.40
43999;DHT22;51319;52.162;5.302;2022-08-03T13:17:15;44.50;29.40
43999;DHT22;51319;52.162;5.302;2022-08-03T13:19:45;44.50;29.10
43999;DHT22;51319;52.162;5.302;2022-08-03T13:22:13;44.30;29.50
43999;DHT22;51319;52.162;5.302;2022-08-03T13:24:41;44.00;29.80
43999;DHT22;51319;52.162;5.302;2022-08-03T13:27:08;43.90;29.70
43999;DHT22;51319;52.162;5.302;2022-08-03T13:29:55;43.80;29.90
43999;DHT22;51319;52.162;5.302;2022-08-03T13:32:22;43.60;30.00
43999;DHT22;51319;52.162;5.302;2022-08-03T13:34:49;43.40;30.10
43999;DHT22;51319;52.162;5.302;2022-08-03T13:37:15;43.30;30.40
43999;DHT22;51319;52.162;5.302;2022-08-03T13:39:43;43.40;31.00
43999;DHT22;51319;52.162;5.302;2022-08-03T13:42:24;43.40;30.80
43999;DHT22;51319;52.162;5.302;2022-08-03T13:44:50;43.30;31.10
43999;DHT22;51319;52.162;5.302;2022-08-03T13:47:18;43.30;30.70
43999;DHT22;51319;52.162;5.302;2022-08-03T13:49:44;42.90;30.50
43999;DHT22;51319;52.162;5.302;2022-08-03T13:52:32;42.60;30.40
43999;DHT22;51319;52.162;5.302;2022-08-03T13:54:58;42.10;31.10
43999;DHT22;51319;52.162;5.302;2022-08-03T13:57:25;41.80;31.20
43999;DHT22;51319;52.162;5.302;2022-08-03T14:00:11;41.20;31.70
43999;DHT22;51319;52.162;5.302;2022-08-03T14:02:38;41.00;33.00
43999;DHT22;51319;52.162;5.302;2022-08-03T14:05:04;41.00;33.10
43999;DHT22;51319;52.162;5.302;2022-08-03T14:07:30;40.80;32.50
43999;DHT22;51319;52.162;5.302;2022-08-03T14:09:57;40.60;32.20
43999;DHT22;51319;52.162;5.302;2022-08-03T14:12:23;40.20;33.90
43999;DHT22;51319;52.162;5.302;2022-08-03T14:14:49;39.90;33.20
43999;DHT22;51319;52.162;5.302;2022-08-03T14:17:16;39.50;33.80
43999;DHT22;51319;52.162;5.302;2022-08-03T14:19:53;39.20;34.40
43999;DHT22;51319;52.162;5.302;2022-08-03T14:22:20;38.80;35.20
43999;DHT22;51319;52.162;5.302;2022-08-03T14:24:46;38.40;35.20
43999;DHT22;51319;52.162;5.302;2022-08-03T14:27:15;38.00;36.00
43999;DHT22;51319;52.162;5.302;2022-08-03T14:33:23;37.50;36.90
43999;DHT22;51319;52.162;5.302;2022-08-03T14:36:25;37.30;36.30
43999;DHT22;51319;52.162;5.302;2022-08-03T14:38:51;37.10;37.20
43999;DHT22;51319;52.162;5.302;2022-08-03T14:41:17;37.00;37.10
43999;DHT22;51319;52.162;5.302;2022-08-03T14:43:46;36.70;37.70
43999;DHT22;51319;52.162;5.302;2022-08-03T14:46:28;36.60;37.90
43999;DHT22;51319;52.162;5.302;2022-08-03T14:48:54;36.50;38.30
43999;DHT22;51319;52.162;5.302;2022-08-03T14:51:40;36.30;38.40
43999;DHT22;51319;52.162;5.302;2022-08-03T14:54:18;35.80;38.80
43999;DHT22;51319;52.162;5.302;2022-08-03T14:56:46;35.60;39.10
43999;DHT22;51319;52.162;5.302;2022-08-03T14:59:13;35.50;39.10
43999;DHT22;51319;52.162;5.302;2022-08-03T15:01:39;35.50;39.60
43999;DHT22;51319;52.162;5.302;2022-08-03T15:04:25;35.40;39.00
43999;DHT22;51319;52.162;5.302;2022-08-03T15:06:52;35.30;39.00
43999;DHT22;51319;52.162;5.302;2022-08-03T15:09:18;35.00;39.00
43999;DHT22;51319;52.162;5.302;2022-08-03T15:11:49;34.90;40.10
43999;DHT22;51319;52.162;5.302;2022-08-03T15:14:17;34.90;39.70
43999;DHT22;51319;52.162;5.302;2022-08-03T15:16:47;34.80;40.40
43999;DHT22;51319;52.162;5.302;2022-08-03T15:19:14;34.70;39.90
43999;DHT22;51319;52.162;5.302;2022-08-03T15:22:00;34.70;40.30
43999;DHT22;51319;52.162;5.302;2022-08-03T15:24:27;34.50;41.00
43999;DHT22;51319;52.162;5.302;2022-08-03T15:26:57;34.40;41.20
43999;DHT22;51319;52.162;5.302;2022-08-03T15:29:23;34.30;41.70
43999;DHT22;51319;52.162;5.302;2022-08-03T15:32:09;34.30;41.30
43999;DHT22;51319;52.162;5.302;2022-08-03T15:34:35;34.10;40.90
43999;DHT22;51319;52.162;5.302;2022-08-03T15:37:02;34.00;41.40
43999;DHT22;51319;52.162;5.302;2022-08-03T15:39:40;33.90;41.60
43999;DHT22;51319;52.162;5.302;2022-08-03T15:42:27;33.90;42.40
43999;DHT22;51319;52.162;5.302;2022-08-03T15:44:53;33.90;41.30
43999;DHT22;51319;52.162;5.302;2022-08-03T15:47:20;33.80;41.40
43999;DHT22;51319;52.162;5.302;2022-08-03T15:49:46;33.80;41.80
43999;DHT22;51319;52.162;5.302;2022-08-03T15:52:13;33.70;41.70
43999;DHT22;51319;52.162;5.302;2022-08-03T15:54:40;33.50;41.30
43999;DHT22;51319;52.162;5.302;2022-08-03T15:57:06;33.40;42.20
43999;DHT22;51319;52.162;5.302;2022-08-03T15:59:33;33.30;42.50
43999;DHT22;51319;52.162;5.302;2022-08-03T16:01:59;33.30;42.50
43999;DHT22;51319;52.162;5.302;2022-08-03T16:04:26;33.30;42.60
43999;DHT22;51319;52.162;5.302;2022-08-03T16:06:52;33.40;43.00
43999;DHT22;51319;52.162;5.302;2022-08-03T16:09:18;33.40;42.90
43999;DHT22;51319;52.162;5.302;2022-08-03T16:12:05;33.30;41.90
43999;DHT22;51319;52.162;5.302;2022-08-03T16:14:40;33.20;42.20
43999;DHT22;51319;52.162;5.302;2022-08-03T16:17:18;33.10;42.60
43999;DHT22;51319;52.162;5.302;2022-08-03T16:19:44;33.00;43.00
43999;DHT22;51319;52.162;5.302;2022-08-03T16:22:10;32.90;43.20
43999;DHT22;51319;52.162;5.302;2022-08-03T16:24:40;32.90;42.60
43999;DHT22;51319;52.162;5.302;2022-08-03T16:27:06;32.90;43.40